Flight Track Log - Related Links

Times and Time Zones

All times are in EDT time to prevent confusion due to time zone crossing. See the EJA982 flight status page for this flight to view local times or setup timezone preferences in your user account.

Time Position Orientation Groundspeed Altitude Reporting Facility
EDT Latitude Longitude Course Direction KTS MPH feet Rate Location/Type
Mon 11:38:38 PM 33.9953 -118.4981 257° West 196 226 2,000  Level Los Angeles Center
Mon 11:39:40 PM 33.9800 -118.5786 257° West 229 264 5,300 2,537 Climbing Los Angeles Center
Mon 11:40:41 PM 33.9575 -118.6661 253° West 271 312 7,200 2,488 Climbing Los Angeles Center
Mon 11:41:43 PM 33.9397 -118.7669 258° West 289 333 10,400 2,323 Climbing Los Angeles Center
Mon 11:42:45 PM 33.9281 -118.8736 263° West 330 380 12,000 1,355 Climbing Los Angeles Center
Mon 11:43:47 PM 33.9650 -118.9875 291° West 379 436 13,200 1,659 Climbing Los Angeles Center
Mon 11:44:48 PM 34.0361 -119.0903 310° West 395 455 15,400 2,146 Climbing Los Angeles Center
Mon 11:45:50 PM 34.1181 -119.1800 318° Northwest 400 460 17,600 2,468 Climbing Los Angeles Center
Mon 11:46:52 PM 34.2050 -119.2603 323° Northwest 394 453 20,500 2,732 Climbing Los Angeles Center
Mon 11:47:53 PM 34.2878 -119.3400 321° Northwest 382 440 23,200 2,195 Climbing Los Angeles Center
Mon 11:48:55 PM 34.3725 -119.4211 322° Northwest 387 445 25,000 1,258 Climbing Los Angeles Center
Mon 11:49:57 PM 34.4878 -119.5322 322° Northwest 440 506 25,800 976 Climbing Los Angeles Center
Mon 11:50:58 PM 34.5811 -119.6364 317° Northwest 454 522 27,000 1,122 Climbing Los Angeles Center
Mon 11:52:00 PM 34.6650 -119.7494 312° West 466 536 28,100 1,122 Climbing Los Angeles Center
Mon 11:53:01 PM 34.7561 -119.8689 313° West 479 551 29,300 927 Climbing Los Angeles Center
Mon 11:54:03 PM 34.8497 -119.9908 313° West 489 563 30,000 339 Climbing Los Angeles Center
Mon 11:55:05 PM 34.9469 -120.1178 313° West 506 582 30,000  Level Los Angeles Center
Mon 11:56:06 PM 35.0722 -120.2700 315° West 533 613 30,000  Level Los Angeles Center
Mon 11:57:08 PM 35.1914 -120.3653 327° Northwest 525 604 30,000  Level Los Angeles Center
Mon 11:58:09 PM 35.3092 -120.4606 327° Northwest 517 595 30,000  Level Los Angeles Center
Mon 11:58:51 PM 35.3900 -120.5289 325° Northwest 519 597 30,000  Level Oakland Center
Mon 11:59:52 PM 35.5133 -120.6272 327° Northwest 517 595 30,000  Level Oakland Center
Tue 12:00:53 AM 35.6339 -120.7242 327° Northwest 514 592 30,000  Level Oakland Center
Tue 12:01:54 AM 35.7531 -120.8206 327° Northwest 512 589 30,000  Level Oakland Center
Tue 12:02:55 AM 35.8725 -120.9178 327° Northwest 514 592 30,000  Level Oakland Center
Tue 12:03:56 AM 35.9933 -121.0172 326° Northwest 522 601 30,000 -885 Level Oakland Center
Tue 12:04:57 AM 36.1075 -121.1167 325° Northwest 505 581 28,200 -2,164 Descending Oakland Center
Tue 12:05:58 AM 36.2200 -121.2147 325° Northwest 493 567 25,600 -2,508 Descending Oakland Center
Tue 12:06:59 AM 36.3297 -121.3078 326° Northwest 475 547 23,100 -2,705 Descending Oakland Center
Tue 12:08:00 AM 36.4486 -121.4100 325° Northwest 432 497 20,100 -3,148 Descending Oakland Center
Tue 12:09:01 AM 36.5581 -121.4431 346° North 402 463 16,700 -3,393 Descending Oakland Center
Tue 12:10:02 AM 36.6606 -121.4678 349° North 377 434 13,200 -2,951 Descending Oakland Center
Tue 12:11:03 AM 36.7569 -121.4917 349° North 353 406 10,700 -1,770 Descending Oakland Center
Tue 12:12:04 AM 36.8300 -121.5108 348° North 295 339 9,600 -1,328 Descending Oakland Center
Tue 12:13:05 AM 36.9022 -121.5306 348° North 270 311 8,000 -787 Descending Oakland Center
Tue 12:14:06 AM 36.9642 -121.5561 342° North 243 280 8,000 -344 Level Oakland Center
Tue 12:15:07 AM 37.0122 -121.6017 323° Northwest 220 253 7,300 -934 Descending Oakland Center
Tue 12:16:08 AM 37.0781 -121.6561 327° Northwest 231 266 6,100 -1,082 Descending Oakland Center
Tue 12:17:09 AM 37.1275 -121.6983 326° Northwest 219 252 5,100 -787 Descending Oakland Center
Tue 12:18:10 AM 37.1736 -121.7414 323° Northwest 211 243 4,500 -934 Descending Oakland Center
Tue 12:19:11 AM 37.2256 -121.7828 328° Northwest 214 246 3,200 -1,180 Descending Oakland Center
Tue 12:20:12 AM 37.2739 -121.8297 322° Northwest 218 251 2,100 -984 Descending Oakland Center
Tue 12:21:13 AM 37.3128 -121.8753 317° Northwest 204 235 1,200 -836 Descending Oakland Center
Tue 12:22:14 AM 37.3389 -121.9058 317° Northwest 155 178 400 -787 Descending Oakland Center
Tue 12:24:00 AM 37.3500 -121.9167 North  Level FlightAware Approximate
Tue 12:31:00 AM 37.3627 -121.9291 North  Level Estimated

Login

Don't have an account? Register now (free) for customized features, flight alerts, and more!